Time;durP1;ratioP1;P1;durP2;ratioP2;P2;SDS_P1;SDS_P2;PMS_P1;PMS_P2;Temp;Humidity;BMP_temperature;BMP_pressure;BME280_temperature;BME280_humidity;BME280_pressure;Samples;Min_cycle;Max_cycle;Signal;HPM_P1;HPM_P2
2022/11/24 00:00:30;;;;;;;16.00;9.50;;;6.10;99.90;;;;;;5076569;28;20255;-73
2022/11/24 00:02:57;;;;;;;20.73;9.47;;;6.10;99.90;;;;;;5077323;28;20223;-73
2022/11/24 00:05:23;;;;;;;13.13;8.77;;;6.10;99.90;;;;;;5076480;28;20652;-73
2022/11/24 00:07:50;;;;;;;13.90;8.13;;;6.10;99.90;;;;;;5076432;28;20283;-73
2022/11/24 00:10:17;;;;;;;12.10;8.27;;;6.10;99.90;;;;;;5075404;28;20242;-73
2022/11/24 00:12:43;;;;;;;13.67;8.37;;;6.10;99.90;;;;;;5076506;28;20483;-72
2022/11/24 00:15:10;;;;;;;18.80;8.17;;;6.00;99.90;;;;;;5077918;28;20254;-72
2022/11/24 00:17:38;;;;;;;16.77;8.87;;;6.00;99.90;;;;;;5078913;28;20274;-71
2022/11/24 00:20:06;;;;;;;14.43;7.50;;;6.00;99.90;;;;;;5078687;28;20201;-71
2022/11/24 00:22:33;;;;;;;19.53;8.23;;;6.00;99.90;;;;;;5078702;28;20197;-72
2022/11/24 00:24:59;;;;;;;28.97;17.70;;;6.10;99.90;;;;;;5078231;28;20201;-72
2022/11/24 00:27:26;;;;;;;29.67;12.80;;;6.00;99.90;;;;;;5076723;28;20197;-73
2022/11/24 00:29:53;;;;;;;17.87;8.57;;;6.00;99.90;;;;;;5076886;28;20201;-71
2022/11/24 00:32:19;;;;;;;19.90;9.03;;;6.00;99.90;;;;;;5076840;28;20444;-72
2022/11/24 00:34:48;;;;;;;16.63;6.73;;;6.00;99.90;;;;;;5075076;28;20718;-72
2022/11/24 00:37:14;;;;;;;49.60;24.83;;;6.00;99.90;;;;;;5074472;28;20266;-72
2022/11/24 00:39:41;;;;;;;42.93;18.97;;;6.00;99.90;;;;;;5073713;28;20270;-72
2022/11/24 00:42:07;;;;;;;23.30;11.33;;;6.00;99.90;;;;;;5073590;28;20710;-72
2022/11/24 00:44:34;;;;;;;22.13;10.23;;;6.00;99.90;;;;;;5073473;28;20209;-72
2022/11/24 00:47:01;;;;;;;28.33;11.33;;;6.00;99.90;;;;;;5073694;28;20201;-72
2022/11/24 00:49:27;;;;;;;28.50;11.63;;;6.00;99.90;;;;;;5073647;28;20251;-72
2022/11/24 00:51:55;;;;;;;59.90;26.47;;;6.10;99.90;;;;;;5073546;28;20251;-72
2022/11/24 00:54:22;;;;;;;34.70;16.03;;;6.10;99.90;;;;;;5072792;28;20216;-72
2022/11/24 00:56:50;;;;;;;18.50;7.23;;;6.10;99.90;;;;;;5073784;28;20246;-72
2022/11/24 00:59:17;;;;;;;16.83;7.63;;;6.10;99.90;;;;;;5073416;28;20203;-72
2022/11/24 01:01:43;;;;;;;27.87;14.70;;;6.20;99.90;;;;;;5073357;28;20299;-72
2022/11/24 01:04:10;;;;;;;19.03;10.23;;;6.20;99.90;;;;;;5073191;28;20648;-72
2022/11/24 01:06:37;;;;;;;19.90;7.17;;;6.10;99.90;;;;;;5073265;28;20267;-72
2022/11/24 01:09:05;;;;;;;25.20;15.73;;;6.10;99.90;;;;;;5073077;28;20726;-72
2022/11/24 01:12:00;;;;;;;13.37;6.87;;;6.10;99.90;;;;;;5073336;28;20205;-72
2022/11/24 01:14:23;;;;;;;20.13;6.97;;;6.10;99.90;;;;;;5073306;28;20197;-72
2022/11/24 01:16:49;;;;;;;15.33;6.97;;;6.10;99.90;;;;;;5072954;28;20710;-72
2022/11/24 01:19:16;;;;;;;17.23;6.77;;;6.20;99.90;;;;;;5073179;28;20208;-71
2022/11/24 01:21:43;;;;;;;15.67;6.93;;;6.20;99.90;;;;;;5072965;28;20200;-72
2022/11/24 01:24:11;;;;;;;19.20;6.53;;;6.20;99.90;;;;;;5073297;28;20193;-72
2022/11/24 01:26:39;;;;;;;16.40;6.77;;;6.30;99.90;;;;;;5073231;28;20197;-72
2022/11/24 01:29:05;;;;;;;17.93;6.60;;;6.30;99.90;;;;;;5073015;28;20231;-72
2022/11/24 01:31:32;;;;;;;15.10;6.80;;;6.30;99.90;;;;;;5073202;28;20197;-72
2022/11/24 01:33:59;;;;;;;17.67;6.83;;;6.30;99.90;;;;;;5077153;28;20204;-72
2022/11/24 01:36:25;;;;;;;21.33;6.83;;;6.40;99.90;;;;;;5077700;28;20729;-73
2022/11/24 01:38:52;;;;;;;16.50;6.57;;;6.40;99.90;;;;;;5078840;28;20225;-72
2022/11/24 01:41:22;;;;;;;18.93;7.10;;;6.40;99.90;;;;;;5075784;28;20197;-72
2022/11/24 01:43:49;;;;;;;15.47;6.43;;;6.40;99.90;;;;;;5073521;28;20197;-72
2022/11/24 01:46:22;;;;;;;24.50;6.77;;;6.40;99.90;;;;;;5073073;28;20599;-72
2022/11/24 01:48:52;;;;;;;18.53;6.67;;;6.40;99.90;;;;;;5073536;28;20204;-72
2022/11/24 01:51:23;;;;;;;22.73;7.70;;;6.40;99.90;;;;;;5073165;28;20224;-72
2022/11/24 01:53:56;;;;;;;15.90;6.77;;;6.40;99.90;;;;;;5073087;28;20234;-72
2022/11/24 01:56:26;;;;;;;17.97;7.37;;;6.40;99.90;;;;;;5073048;28;20254;-72
2022/11/24 01:58:57;;;;;;;12.30;6.80;;;6.30;99.90;;;;;;5074277;28;20252;-72
2022/11/24 02:01:24;;;;;;;18.23;6.67;;;6.20;99.90;;;;;;5075759;28;20200;-72
2022/11/24 02:03:52;;;;;;;17.13;6.53;;;6.10;99.90;;;;;;5075285;28;20676;-72
2022/11/24 02:06:22;;;;;;;18.80;6.83;;;6.20;99.90;;;;;;5076255;28;20229;-72
2022/11/24 02:08:52;;;;;;;20.60;7.80;;;6.10;99.90;;;;;;5078782;28;20255;-71
2022/11/24 02:11:22;;;;;;;27.83;7.93;;;6.10;99.90;;;;;;5079948;28;20556;-72
2022/11/24 02:13:52;;;;;;;24.03;7.40;;;6.10;99.90;;;;;;5079972;28;20196;-72
2022/11/24 02:16:19;;;;;;;14.43;6.40;;;6.10;99.90;;;;;;5079973;28;20652;-72
2022/11/24 02:18:46;;;;;;;18.63;6.60;;;6.10;99.90;;;;;;5079317;28;20250;-72
2022/11/24 02:21:15;;;;;;;18.27;7.37;;;6.10;99.90;;;;;;5080925;28;20223;-73
2022/11/24 02:23:49;;;;;;;19.57;6.87;;;6.10;99.90;;;;;;5080788;28;20235;-72
2022/11/24 02:26:29;;;;;;;17.23;7.33;;;6.20;99.90;;;;;;5080677;28;20193;-72
2022/11/24 02:28:56;;;;;;;20.87;6.57;;;6.20;99.90;;;;;;5080092;28;20664;-73
2022/11/24 02:31:22;;;;;;;20.73;7.10;;;6.30;99.90;;;;;;5079449;28;20193;-73
2022/11/24 02:33:50;;;;;;;22.07;6.13;;;6.30;99.90;;;;;;5080774;28;20201;-73
2022/11/24 02:36:17;;;;;;;21.50;6.80;;;6.20;99.90;;;;;;5077565;28;20197;-72
2022/11/24 02:38:43;;;;;;;17.40;6.33;;;6.30;99.90;;;;;;5076420;28;20294;-72
2022/11/24 02:41:13;;;;;;;27.13;6.53;;;6.20;99.90;;;;;;5076057;28;20200;-72
2022/11/24 02:43:44;;;;;;;19.80;6.20;;;6.20;99.90;;;;;;5076143;28;20607;-72
2022/11/24 02:46:11;;;;;;;24.47;6.87;;;6.30;99.90;;;;;;5076294;28;20200;-72
2022/11/24 02:48:38;;;;;;;19.43;5.63;;;6.30;99.90;;;;;;5076064;28;20646;-72
2022/11/24 02:51:05;;;;;;;22.30;6.27;;;6.30;99.90;;;;;;5075981;28;20201;-72
2022/11/24 02:53:32;;;;;;;19.80;6.33;;;6.40;99.90;;;;;;5076044;28;20632;-73
2022/11/24 02:55:58;;;;;;;21.33;6.57;;;6.40;99.90;;;;;;5075870;28;20200;-72
2022/11/24 02:58:25;;;;;;;21.10;6.70;;;6.50;99.90;;;;;;5075837;28;20266;-72
2022/11/24 03:00:54;;;;;;;23.13;6.60;;;6.60;99.90;;;;;;5075707;28;20193;-72
2022/11/24 03:03:21;;;;;;;18.63;6.87;;;6.60;99.90;;;;;;5075891;28;20197;-72
2022/11/24 03:05:47;;;;;;;16.50;6.13;;;6.60;99.90;;;;;;5075417;28;20201;-72
2022/11/24 03:08:14;;;;;;;15.50;7.30;;;6.70;99.90;;;;;;5075909;28;20262;-72
2022/11/24 03:10:40;;;;;;;17.67;7.13;;;6.80;99.90;;;;;;5075681;28;20204;-72
2022/11/24 03:13:07;;;;;;;19.63;6.60;;;6.90;99.90;;;;;;5075769;28;20192;-73
2022/11/24 03:15:34;;;;;;;15.67;6.20;;;6.90;99.90;;;;;;5075551;28;20235;-72
2022/11/24 03:18:02;;;;;;;18.87;7.50;;;6.90;99.90;;;;;;5074912;28;20252;-72
2022/11/24 03:20:29;;;;;;;18.70;6.90;;;6.90;99.90;;;;;;5075720;28;20254;-73
2022/11/24 03:22:56;;;;;;;18.23;7.53;;;6.90;99.90;;;;;;5075569;28;20247;-72
2022/11/24 03:25:23;;;;;;;18.87;7.03;;;6.90;99.90;;;;;;5075376;28;20263;-73
2022/11/24 03:27:50;;;;;;;17.00;6.60;;;6.90;99.90;;;;;;5074958;28;20199;-73
2022/11/24 03:30:17;;;;;;;24.40;7.10;;;6.90;99.90;;;;;;5074970;28;20208;-73
2022/11/24 03:32:44;;;;;;;16.83;7.70;;;6.90;99.90;;;;;;5074995;28;20229;-73
2022/11/24 03:35:12;;;;;;;16.20;6.67;;;6.90;99.90;;;;;;5075015;28;20197;-73
2022/11/24 03:37:38;;;;;;;17.87;7.60;;;7.00;99.90;;;;;;5074621;28;20259;-73
2022/11/24 03:40:06;;;;;;;18.03;7.60;;;6.90;99.90;;;;;;5074742;28;20242;-73
2022/11/24 03:42:33;;;;;;;15.47;7.30;;;7.00;99.90;;;;;;5075144;28;20227;-73
2022/11/24 03:44:59;;;;;;;17.97;7.90;;;7.00;99.90;;;;;;5075083;28;20247;-73
2022/11/24 03:47:26;;;;;;;23.47;8.20;;;7.00;99.90;;;;;;5074926;28;20200;-73
2022/11/24 03:49:53;;;;;;;17.93;6.97;;;7.00;99.90;;;;;;5075229;28;20687;-73
2022/11/24 03:52:21;;;;;;;15.37;7.60;;;7.10;99.90;;;;;;5074962;28;20201;-72
2022/11/24 03:54:47;;;;;;;17.90;6.10;;;7.10;99.90;;;;;;5074798;28;20677;-72
2022/11/24 03:57:14;;;;;;;18.50;6.43;;;7.10;99.90;;;;;;5074796;28;20200;-72
2022/11/24 03:59:41;;;;;;;18.07;6.57;;;7.10;99.90;;;;;;5074613;28;20234;-73
2022/11/24 04:02:07;;;;;;;15.10;5.80;;;7.10;99.90;;;;;;5074669;28;20199;-73
2022/11/24 04:04:34;;;;;;;18.63;5.60;;;7.10;99.90;;;;;;5074542;28;20199;-72
2022/11/24 04:07:01;;;;;;;12.70;4.90;;;7.10;99.90;;;;;;5074054;28;20232;-73
2022/11/24 04:09:29;;;;;;;14.03;4.90;;;7.10;99.90;;;;;;5074099;28;20254;-72
2022/11/24 04:14:40;;;;;;;12.57;4.43;;;7.20;99.90;;;;;;5074224;28;20290;-73
2022/11/24 04:17:06;;;;;;;13.60;4.90;;;7.20;99.90;;;;;;5073885;28;20205;-73
2022/11/24 04:19:33;;;;;;;16.70;4.73;;;7.20;99.90;;;;;;5073757;28;20703;-72
2022/11/24 04:22:00;;;;;;;16.37;4.70;;;7.20;99.90;;;;;;5073654;28;20197;-73
2022/11/24 04:24:26;;;;;;;16.90;4.10;;;7.20;99.90;;;;;;5073598;28;20205;-72
2022/11/24 04:26:54;;;;;;;17.33;4.30;;;7.20;99.90;;;;;;5073435;28;20660;-72
2022/11/24 04:29:21;;;;;;;16.23;3.83;;;7.10;99.90;;;;;;5072995;28;20580;-72
2022/11/24 04:31:47;;;;;;;18.30;5.03;;;7.10;99.90;;;;;;5073986;28;20231;-72
2022/11/24 04:34:14;;;;;;;17.43;3.73;;;7.10;99.90;;;;;;5073803;28;20196;-72
2022/11/24 04:36:41;;;;;;;12.20;4.10;;;7.10;99.90;;;;;;5073690;28;20201;-72
2022/11/24 04:39:08;;;;;;;15.30;4.17;;;7.00;99.90;;;;;;5073352;28;20221;-72
2022/11/24 04:41:34;;;;;;;13.37;3.60;;;6.90;99.90;;;;;;5073564;28;20223;-72
2022/11/24 04:44:02;;;;;;;13.93;3.50;;;6.80;99.90;;;;;;5073518;28;20243;-72
2022/11/24 04:46:30;;;;;;;15.97;3.53;;;6.80;99.90;;;;;;5073503;28;20328;-72
2022/11/24 04:48:56;;;;;;;17.87;4.40;;;6.80;99.90;;;;;;5073350;28;20201;-72
2022/11/24 04:51:23;;;;;;;14.17;3.50;;;6.70;99.90;;;;;;5073234;28;20254;-74
2022/11/24 04:53:50;;;;;;;14.00;4.00;;;6.70;99.90;;;;;;5073177;28;20290;-72
2022/11/24 04:56:16;;;;;;;12.83;4.03;;;6.60;99.90;;;;;;5073064;28;20224;-72
2022/11/24 04:58:43;;;;;;;16.77;3.33;;;6.60;99.90;;;;;;5073184;28;20233;-72
2022/11/24 05:01:11;;;;;;;15.43;3.70;;;6.50;99.90;;;;;;5073156;28;20259;-73
2022/11/24 05:03:37;;;;;;;17.03;4.03;;;6.40;99.90;;;;;;5073107;28;20197;-72
2022/11/24 05:06:05;;;;;;;11.40;3.43;;;6.40;99.90;;;;;;5072885;28;20229;-73
2022/11/24 05:08:31;;;;;;;13.57;4.20;;;6.40;99.90;;;;;;5072922;28;20209;-73
2022/11/24 05:11:04;;;;;;;12.10;3.20;;;6.30;99.90;;;;;;5072878;28;20200;-73
2022/11/24 05:13:31;;;;;;;11.27;3.67;;;6.20;99.90;;;;;;5073025;28;20235;-73
2022/11/24 05:15:58;;;;;;;10.87;3.40;;;6.20;99.90;;;;;;5072998;28;20209;-73
2022/11/24 05:18:27;;;;;;;15.77;3.47;;;6.20;99.90;;;;;;5072774;28;20231;-72
2022/11/24 05:20:54;;;;;;;14.13;4.10;;;6.20;99.90;;;;;;5072880;28;20224;-72
2022/11/24 05:23:21;;;;;;;20.90;4.20;;;6.20;99.90;;;;;;5072763;28;20707;-73
2022/11/24 05:25:48;;;;;;;14.87;3.90;;;6.10;99.90;;;;;;5072986;28;20192;-71
2022/11/24 05:28:14;;;;;;;15.97;4.03;;;6.10;99.90;;;;;;5073172;28;20257;-71
2022/11/24 05:30:42;;;;;;;11.37;3.27;;;6.20;99.90;;;;;;5072977;28;20201;-74
2022/11/24 05:33:14;;;;;;;14.53;3.77;;;6.10;99.90;;;;;;5072718;28;20698;-73
2022/11/24 05:35:42;;;;;;;14.07;3.63;;;6.10;99.90;;;;;;5072590;28;20201;-73
2022/11/24 05:38:09;;;;;;;14.63;3.83;;;6.00;99.90;;;;;;5072633;28;20583;-73
2022/11/24 05:40:36;;;;;;;13.53;3.90;;;6.00;99.90;;;;;;5074978;28;20197;-73
2022/11/24 05:43:03;;;;;;;14.53;4.20;;;6.00;99.90;;;;;;5076731;28;20205;-74
2022/11/24 05:45:30;;;;;;;14.10;4.10;;;6.00;99.90;;;;;;5076781;28;20196;-73
2022/11/24 05:48:04;;;;;;;17.77;4.40;;;5.90;99.90;;;;;;5076618;28;20201;-73
2022/11/24 05:50:31;;;;;;;12.67;4.40;;;5.90;99.90;;;;;;5076836;28;20208;-73
2022/11/24 05:53:02;;;;;;;17.70;3.87;;;5.80;99.90;;;;;;5076588;28;20258;-72
2022/11/24 05:55:28;;;;;;;15.30;4.10;;;5.70;99.90;;;;;;5076531;28;20538;-72
2022/11/24 05:57:58;;;;;;;13.90;4.00;;;5.70;99.90;;;;;;5076355;28;20680;-73
2022/11/24 06:00:25;;;;;;;15.87;4.20;;;5.80;99.90;;;;;;5076331;28;20258;-72
2022/11/24 06:02:52;;;;;;;14.60;3.70;;;5.80;99.90;;;;;;5076057;28;20197;-73
2022/11/24 06:05:18;;;;;;;14.80;4.43;;;5.70;99.90;;;;;;5076320;28;20200;-73
2022/11/24 06:07:45;;;;;;;12.67;4.13;;;5.70;99.90;;;;;;5076012;28;20229;-73
2022/11/24 06:10:14;;;;;;;13.03;4.53;;;5.60;99.90;;;;;;5076038;28;20710;-73
2022/11/24 06:12:41;;;;;;;12.57;3.57;;;5.50;99.90;;;;;;5076070;28;20607;-73
2022/11/24 06:15:08;;;;;;;13.83;5.10;;;5.50;99.90;;;;;;5076081;28;20254;-74
2022/11/24 06:17:35;;;;;;;11.80;3.50;;;5.50;99.90;;;;;;5075980;28;20258;-73
2022/11/24 06:20:02;;;;;;;16.07;4.13;;;5.50;99.90;;;;;;5076079;28;20283;-73
2022/11/24 06:22:28;;;;;;;15.10;4.10;;;5.40;99.90;;;;;;5076082;28;20197;-73
2022/11/24 06:24:55;;;;;;;9.53;3.33;;;5.40;99.90;;;;;;5075855;28;20227;-73
2022/11/24 06:27:23;;;;;;;12.63;3.93;;;5.60;99.90;;;;;;5075910;28;20193;-74
2022/11/24 06:29:50;;;;;;;14.83;3.83;;;5.60;99.90;;;;;;5075645;28;20672;-73
2022/11/24 06:32:17;;;;;;;16.93;4.67;;;5.60;99.90;;;;;;5075807;28;20405;-73
2022/11/24 06:34:44;;;;;;;20.73;4.50;;;5.70;99.90;;;;;;5075892;28;20193;-73
2022/11/24 06:37:10;;;;;;;10.20;4.00;;;5.70;99.90;;;;;;5075746;28;20606;-73
2022/11/24 06:39:37;;;;;;;17.70;4.50;;;5.90;99.90;;;;;;5075551;28;20258;-73
2022/11/24 06:42:04;;;;;;;10.63;4.50;;;5.90;99.90;;;;;;5075510;28;20263;-72
2022/11/24 06:44:32;;;;;;;11.17;3.80;;;6.00;99.90;;;;;;5075284;28;20193;-74
2022/11/24 06:46:58;;;;;;;11.23;3.17;;;6.00;99.90;;;;;;5075597;28;20197;-73
2022/11/24 06:49:25;;;;;;;14.23;4.33;;;6.00;99.90;;;;;;5075450;28;20197;-72
2022/11/24 06:51:54;;;;;;;13.93;5.60;;;5.90;99.90;;;;;;5074579;28;20274;-73
2022/11/24 06:54:21;;;;;;;9.80;3.97;;;6.00;99.90;;;;;;5075363;28;20251;-73
2022/11/24 06:56:47;;;;;;;12.57;4.03;;;6.00;99.90;;;;;;5076544;28;20315;-74
2022/11/24 06:59:17;;;;;;;9.97;5.50;;;6.00;99.90;;;;;;5077384;28;20221;-73
2022/11/24 07:01:45;;;;;;;10.87;4.53;;;6.00;99.90;;;;;;5077396;28;20201;-73
2022/11/24 07:04:12;;;;;;;15.47;4.67;;;6.00;99.90;;;;;;5077974;28;20225;-73
2022/11/24 07:06:40;;;;;;;15.53;4.33;;;6.00;99.90;;;;;;5076224;28;20611;-74
2022/11/24 07:09:07;;;;;;;11.10;4.43;;;6.00;99.90;;;;;;5075574;28;20197;-73
2022/11/24 07:11:34;;;;;;;11.63;4.33;;;6.00;99.90;;;;;;5075237;28;20193;-74
2022/11/24 07:14:00;;;;;;;9.13;3.40;;;6.10;99.90;;;;;;5075555;28;20196;-72
2022/11/24 07:16:27;;;;;;;13.37;4.23;;;6.10;99.90;;;;;;5075106;28;20295;-72
2022/11/24 07:18:56;;;;;;;11.77;3.57;;;6.00;99.90;;;;;;5074962;28;20274;-74
2022/11/24 07:21:24;;;;;;;9.83;3.73;;;6.10;99.90;;;;;;5075007;28;20251;-73
2022/11/24 07:23:52;;;;;;;10.57;4.03;;;6.10;99.90;;;;;;5074691;28;20193;-72
2022/11/24 07:26:19;;;;;;;7.53;3.50;;;6.10;99.90;;;;;;5074870;28;20247;-73
2022/11/24 07:28:46;;;;;;;8.77;3.77;;;6.10;99.90;;;;;;5074908;28;20247;-73
2022/11/24 07:31:14;;;;;;;10.10;4.00;;;6.20;99.90;;;;;;5074804;28;20197;-73
2022/11/24 07:33:41;;;;;;;10.40;3.67;;;6.20;99.90;;;;;;5074719;28;20205;-73
2022/11/24 07:36:09;;;;;;;9.23;4.40;;;6.20;99.90;;;;;;5074530;28;20270;-72
2022/11/24 07:38:36;;;;;;;13.37;3.33;;;6.20;99.90;;;;;;5074331;28;20250;-71
2022/11/24 07:41:05;;;;;;;14.10;3.87;;;6.10;99.90;;;;;;5074566;28;20630;-72
2022/11/24 07:43:33;;;;;;;11.23;3.77;;;6.10;99.90;;;;;;5074501;28;20201;-71
2022/11/24 07:46:00;;;;;;;14.83;3.33;;;6.00;99.90;;;;;;5074346;28;20201;-72
2022/11/24 07:48:26;;;;;;;10.57;3.80;;;6.00;99.90;;;;;;5074383;28;20197;-70
2022/11/24 07:50:53;;;;;;;14.97;4.67;;;6.10;99.90;;;;;;5074179;28;20251;-72
2022/11/24 07:53:21;;;;;;;14.17;5.77;;;6.10;99.90;;;;;;5074001;28;20655;-71
2022/11/24 07:55:54;;;;;;;13.47;3.40;;;6.20;99.90;;;;;;5074117;28;20235;-71
2022/11/24 07:58:21;;;;;;;9.90;3.47;;;6.40;99.90;;;;;;5074162;28;20197;-71
2022/11/24 08:00:47;;;;;;;10.07;4.33;;;6.40;99.90;;;;;;5073877;28;20225;-71
2022/11/24 08:03:14;;;;;;;9.50;3.87;;;6.60;99.90;;;;;;5073807;28;20219;-71
2022/11/24 08:05:41;;;;;;;11.57;3.77;;;6.70;99.90;;;;;;5073508;28;20205;-72
2022/11/24 08:08:07;;;;;;;14.60;3.80;;;6.70;99.90;;;;;;5073713;28;20717;-72
2022/11/24 08:10:35;;;;;;;9.33;3.43;;;6.80;99.90;;;;;;5073807;28;20209;-72
2022/11/24 08:13:02;;;;;;;12.43;3.83;;;6.80;99.90;;;;;;5073696;28;20247;-72
2022/11/24 08:15:29;;;;;;;12.17;4.23;;;6.80;99.90;;;;;;5073537;28;20599;-71
2022/11/24 08:17:55;;;;;;;11.20;2.97;;;6.80;99.90;;;;;;5073638;28;20644;-72
2022/11/24 08:20:22;;;;;;;9.53;3.37;;;6.90;99.90;;;;;;5073466;28;20232;-71
2022/11/24 08:22:49;;;;;;;11.83;3.87;;;6.90;99.90;;;;;;5073650;28;20250;-70
2022/11/24 08:25:17;;;;;;;11.43;3.17;;;6.90;99.90;;;;;;5073606;28;20206;-70
2022/11/24 08:27:45;;;;;;;11.27;3.97;;;7.00;99.90;;;;;;5073349;28;20201;-72
2022/11/24 08:30:13;;;;;;;8.47;3.17;;;7.00;99.90;;;;;;5073463;28;20659;-75
2022/11/24 08:32:40;;;;;;;12.17;3.10;;;7.10;99.90;;;;;;5073221;28;20197;-72
2022/11/24 08:35:07;;;;;;;13.13;3.70;;;7.10;99.90;;;;;;5073570;28;20197;-71
2022/11/24 08:37:34;;;;;;;12.73;3.93;;;7.10;99.90;;;;;;5073333;28;20216;-72
2022/11/24 08:40:01;;;;;;;8.77;3.60;;;7.10;99.90;;;;;;5073240;28;20231;-70
2022/11/24 08:42:28;;;;;;;8.77;3.20;;;7.10;99.90;;;;;;5073255;28;20556;-70
2022/11/24 08:44:56;;;;;;;12.70;3.47;;;7.00;99.90;;;;;;5074158;28;20244;-70
2022/11/24 08:47:23;;;;;;;15.63;3.60;;;7.00;99.90;;;;;;5073678;28;20193;-70
2022/11/24 08:49:50;;;;;;;12.37;4.23;;;7.00;99.90;;;;;;5073533;28;20201;-71
2022/11/24 08:52:16;;;;;;;10.70;3.00;;;7.00;99.90;;;;;;5073584;28;20193;-70
2022/11/24 08:54:43;;;;;;;62.07;22.30;;;7.00;99.90;;;;;;5073521;28;20204;-70
2022/11/24 08:57:10;;;;;;;23.07;8.10;;;7.00;99.90;;;;;;5073924;28;20226;-70
2022/11/24 08:59:37;;;;;;;23.77;8.90;;;6.90;99.90;;;;;;5073635;28;20488;-71
2022/11/24 09:02:05;;;;;;;33.10;13.30;;;7.00;99.90;;;;;;5073885;28;20201;-71
2022/11/24 09:04:32;;;;;;;16.00;6.67;;;7.00;99.90;;;;;;5073955;28;20358;-71
2022/11/24 09:06:59;;;;;;;10.17;3.10;;;6.90;99.90;;;;;;5073913;28;20286;-71
2022/11/24 09:09:25;;;;;;;14.80;3.70;;;6.90;99.90;;;;;;5073744;28;20251;-72
2022/11/24 09:11:52;;;;;;;8.53;2.83;;;6.80;99.90;;;;;;5073897;28;20197;-72
2022/11/24 09:14:19;;;;;;;11.73;3.00;;;6.70;99.90;;;;;;5073374;28;20213;-72
2022/11/24 09:16:46;;;;;;;8.73;2.70;;;6.50;99.90;;;;;;5073512;28;20201;-72
2022/11/24 09:19:14;;;;;;;8.17;2.63;;;6.40;99.90;;;;;;5074452;28;20197;-72
2022/11/24 09:21:40;;;;;;;7.03;2.27;;;6.40;99.90;;;;;;5073957;28;20228;-72
2022/11/24 09:24:08;;;;;;;6.83;2.47;;;6.40;99.90;;;;;;5073674;28;20699;-70
2022/11/24 09:26:36;;;;;;;5.30;1.90;;;6.40;99.90;;;;;;5073392;28;20201;-71
2022/11/24 09:29:04;;;;;;;6.00;2.33;;;6.40;99.90;;;;;;5073071;28;20204;-70
2022/11/24 09:31:33;;;;;;;7.33;2.70;;;6.30;99.90;;;;;;5073194;28;20201;-70
2022/11/24 09:34:00;;;;;;;9.20;2.90;;;6.30;99.90;;;;;;5073085;28;20287;-74
2022/11/24 09:36:30;;;;;;;7.77;3.53;;;6.20;99.90;;;;;;5073123;28;20247;-70
2022/11/24 09:38:56;;;;;;;7.83;2.63;;;6.30;99.90;;;;;;5073109;28;20202;-70
2022/11/24 09:41:35;;;;;;;9.67;2.73;;;6.20;99.90;;;;;;5072958;28;20224;-70
2022/11/24 09:44:11;;;;;;;8.03;2.77;;;6.30;99.90;;;;;;5073037;28;20537;-70
2022/11/24 09:46:49;;;;;;;8.93;3.33;;;6.30;99.90;;;;;;5073124;28;20537;-70
2022/11/24 09:49:30;;;;;;;9.13;3.00;;;6.40;99.90;;;;;;5073045;28;20279;-70
2022/11/24 09:52:02;;;;;;;12.97;3.87;;;6.50;99.90;;;;;;5073007;28;20234;-70
2022/11/24 09:54:30;;;;;;;8.07;2.93;;;6.60;99.90;;;;;;5073037;28;20283;-70
2022/11/24 09:57:00;;;;;;;7.60;2.53;;;6.70;99.90;;;;;;5071842;28;20204;-70
2022/11/24 09:59:27;;;;;;;8.77;2.60;;;6.60;99.90;;;;;;5073177;28;20198;-69
2022/11/24 10:01:55;;;;;;;6.80;2.57;;;6.60;99.90;;;;;;5072738;28;20205;-70
2022/11/24 10:04:25;;;;;;;7.97;2.47;;;6.50;99.90;;;;;;5072609;28;20201;-68
2022/11/24 10:07:00;;;;;;;8.63;3.50;;;6.50;99.90;;;;;;5073001;28;20307;-69
2022/11/24 10:09:45;;;;;;;12.27;3.20;;;6.50;99.90;;;;;;5073603;28;20247;-69
2022/11/24 10:12:30;;;;;;;7.87;2.87;;;6.40;99.90;;;;;;5073876;28;20201;-69
2022/11/24 10:15:28;;;;;;;9.00;3.67;;;6.50;99.90;;;;;;5075493;28;20198;-70
2022/11/24 10:18:07;;;;;;;7.07;3.30;;;6.60;99.90;;;;;;5072778;28;20197;-69
2022/11/24 10:20:48;;;;;;;6.63;3.27;;;6.60;99.90;;;;;;5072474;28;20224;-69
2022/11/24 10:23:32;;;;;;;10.07;3.60;;;6.70;99.90;;;;;;5072295;28;20193;-69
2022/11/24 10:26:00;;;;;;;9.33;3.23;;;6.70;99.90;;;;;;5072738;28;20695;-71
2022/11/24 10:28:33;;;;;;;8.07;2.57;;;6.70;99.90;;;;;;5075889;28;20201;-70
2022/11/24 10:31:17;;;;;;;9.33;2.37;;;6.70;99.90;;;;;;5075972;28;20227;-70
2022/11/24 10:33:44;;;;;;;8.20;2.60;;;6.70;99.90;;;;;;5076003;28;20706;-69
2022/11/24 10:36:17;;;;;;;5.93;2.70;;;6.70;99.90;;;;;;5076223;28;20537;-69
2022/11/24 10:38:51;;;;;;;6.87;2.13;;;6.70;99.90;;;;;;5076143;28;20205;-69
2022/11/24 10:41:23;;;;;;;10.73;3.37;;;6.70;99.90;;;;;;5075743;28;20225;-70
2022/11/24 10:43:51;;;;;;;8.67;3.07;;;6.80;99.90;;;;;;5075744;28;20223;-70
2022/11/24 10:46:22;;;;;;;13.40;6.30;;;6.80;99.90;;;;;;5075919;28;20227;-70
2022/11/24 10:48:53;;;;;;;8.87;4.37;;;6.80;99.90;;;;;;5075905;28;20205;-70
2022/11/24 10:51:41;;;;;;;10.27;3.20;;;6.90;99.90;;;;;;5075802;28;20209;-70
2022/11/24 10:54:16;;;;;;;8.47;4.40;;;6.80;99.90;;;;;;5075680;28;20255;-70
2022/11/24 10:56:44;;;;;;;10.93;3.57;;;6.90;99.90;;;;;;5075558;28;20647;-69
2022/11/24 10:59:27;;;;;;;12.43;4.13;;;7.10;99.90;;;;;;5075593;28;20295;-71
2022/11/24 11:01:55;;;;;;;7.10;4.10;;;7.20;99.90;;;;;;5075451;28;20618;-69
2022/11/24 11:04:26;;;;;;;16.47;7.93;;;7.40;99.90;;;;;;5075410;28;20284;-70
2022/11/24 11:06:52;;;;;;;8.23;3.93;;;8.60;99.90;;;;;;5075571;28;20228;-69
2022/11/24 11:09:22;;;;;;;10.00;3.73;;;8.70;99.90;;;;;;5076163;28;20201;-70
2022/11/24 11:11:52;;;;;;;7.93;3.53;;;8.00;99.90;;;;;;5075919;28;20203;-69
2022/11/24 11:14:30;;;;;;;13.87;6.27;;;7.80;99.90;;;;;;5075499;28;20266;-69
2022/11/24 11:16:57;;;;;;;11.33;4.53;;;7.60;99.90;;;;;;5075304;28;20198;-72
2022/11/24 11:19:35;;;;;;;7.67;2.87;;;7.70;99.90;;;;;;5075167;28;20192;-70
2022/11/24 11:22:04;;;;;;;7.83;2.80;;;7.80;99.90;;;;;;5075370;28;20220;-70
2022/11/24 11:24:32;;;;;;;6.20;3.10;;;7.70;99.90;;;;;;5075182;28;20598;-70
2022/11/24 11:27:01;;;;;;;5.90;2.57;;;7.70;99.90;;;;;;5075550;28;20201;-71
2022/11/24 11:29:29;;;;;;;5.43;2.37;;;10.00;99.90;;;;;;5075438;28;20193;-71
2022/11/24 11:31:58;;;;;;;7.00;2.80;;;10.60;99.90;;;;;;5075196;28;20560;-70
2022/11/24 11:34:25;;;;;;;4.87;2.20;;;8.70;99.90;;;;;;5074944;28;20201;-70
2022/11/24 11:36:54;;;;;;;11.17;5.10;;;8.70;99.90;;;;;;5075122;28;20201;-71
2022/11/24 11:39:24;;;;;;;8.53;4.43;;;8.40;99.90;;;;;;5074512;28;20556;-71
2022/11/24 11:42:02;;;;;;;6.13;3.23;;;8.40;99.90;;;;;;5074997;28;20233;-71
2022/11/24 11:44:35;;;;;;;7.37;4.27;;;8.50;99.90;;;;;;5074713;28;20205;-71
2022/11/24 11:47:15;;;;;;;10.87;3.70;;;8.90;99.90;;;;;;5074828;28;20197;-71
2022/11/24 11:49:41;;;;;;;7.33;3.33;;;9.00;99.90;;;;;;5074640;28;20208;-71
2022/11/24 11:52:28;;;;;;;7.73;2.90;;;10.50;99.90;;;;;;5074752;28;20205;-71
2022/11/24 11:55:10;;;;;;;5.17;2.63;;;11.70;99.90;;;;;;5072903;28;20196;-72
2022/11/24 11:57:46;;;;;;;4.40;2.70;;;11.20;99.90;;;;;;5074666;28;20197;-72
2022/11/24 12:00:15;;;;;;;8.90;3.83;;;10.40;99.90;;;;;;5074416;28;20254;-72
2022/11/24 12:03:24;;;;;;;6.47;2.67;;;9.80;99.90;;;;;;5074374;28;20197;-72
2022/11/24 12:05:59;;;;;;;8.07;2.83;;;9.40;99.90;;;;;;5063215;28;20692;-72
2022/11/24 12:08:38;;;;;;;5.10;2.60;;;12.20;99.90;;;;;;5073829;28;20200;-72
2022/11/24 12:11:09;;;;;;;5.67;2.67;;;14.00;99.90;;;;;;5073745;28;20660;-72
2022/11/24 12:13:51;;;;;;;7.03;2.87;;;13.70;99.90;;;;;;5073781;28;20209;-72
2022/11/24 12:16:29;;;;;;;4.27;1.80;;;13.00;99.90;;;;;;5073709;28;20201;-72
2022/11/24 12:19:06;;;;;;;4.33;1.83;;;10.30;99.90;;;;;;5073690;28;20208;-73
2022/11/24 12:21:41;;;;;;;5.13;2.10;;;9.50;99.90;;;;;;5073699;28;20220;-74
2022/11/24 12:24:15;;;;;;;4.67;2.10;;;9.20;99.90;;;;;;5074567;28;20208;-75
2022/11/24 12:26:45;;;;;;;22.53;10.50;;;9.00;99.90;;;;;;5079278;28;20655;-74
2022/11/24 12:29:32;;;;;;;25.80;11.47;;;8.90;99.90;;;;;;5079082;28;20227;-76
2022/11/24 12:32:10;;;;;;;14.33;6.80;;;9.00;99.90;;;;;;5076125;28;20246;-75
2022/11/24 12:34:47;;;;;;;12.40;5.77;;;8.50;99.90;;;;;;5077158;28;20205;-72
2022/11/24 12:37:32;;;;;;;11.87;5.00;;;8.30;99.90;;;;;;5076770;28;20197;-72
2022/11/24 12:40:09;;;;;;;10.93;5.07;;;8.10;99.90;;;;;;5075943;28;20258;-72
2022/11/24 12:42:46;;;;;;;6.03;2.60;;;8.10;99.90;;;;;;5074278;28;20304;-72
2022/11/24 12:45:16;;;;;;;7.97;3.13;;;8.10;99.90;;;;;;5074085;28;20257;-72
2022/11/24 12:48:06;;;;;;;5.87;3.27;;;8.10;99.90;;;;;;5074208;28;20247;-72
2022/11/24 12:50:37;;;;;;;9.30;4.87;;;8.10;99.90;;;;;;5076592;28;20338;-73
2022/11/24 12:53:10;;;;;;;10.83;4.37;;;8.10;99.90;;;;;;5074586;28;20250;-72
2022/11/24 12:55:38;;;;;;;14.50;7.40;;;8.80;99.90;;;;;;5076169;28;20205;-73
2022/11/24 12:58:10;;;;;;;14.90;7.57;;;8.50;99.90;;;;;;5076058;28;20200;-72
2022/11/24 13:00:52;;;;;;;14.10;5.70;;;8.40;99.90;;;;;;5074420;28;20771;-74